aviador You're here:

KOFF Decoded Metar

OMAHA in NE, USA
Report Time2017-06-25 00:56:00
UTC Time2017-06-25 02:03:19
Flight Rules Old
Wind300° at 08 kt
W.Decomp.*RWY 30: 8.0 kt HW 0.7 kt LCW
W.Rank300° ranks 6
Current wind is below 300° avg. (8.5)
Visibility9999 m
Phenomena:N/A
Clouds:Broken 160 Hf
Broken 180 Hf
Expected CloudBase > 7,200 ft AGL from Temp-Dew spread
Ceiling16,000 ft
Temp24°C (ISA +11)
Dew Point06°C (31% RH)
AAT20.2°C
QNH1020 hPa
Density Alt2,228 ft
Elevation1,047 ft
Report Wrong Elevation
Raw Report
KOFF 250056Z AUTO 30008KT 10SM BKN160 BKN180 24/06 A3011 RMK AO2
SLP196 T02350063 $=

Extra information for KOFF:More info

Metar Taf Metar & Taf Last 4 Metars F.Rules Stats Wind Profile Meteogram Temp Stats Airport Information Weather charts Add Link Nearby VenuesMetar ALERT Operation Metar Decoded Social comments

AIRNAV info for KOFF